createdAt,value
2023-11-09T00:00:45.643Z,9.40
2023-11-09T00:02:50.315Z,10.80
2023-11-09T00:04:52.719Z,9.70
2023-11-09T00:06:54.595Z,10.10
2023-11-09T00:08:56.870Z,9.80
2023-11-09T00:10:59.223Z,9.60
2023-11-09T00:13:03.600Z,10.30
2023-11-09T00:15:06.238Z,9.80
2023-11-09T00:17:08.208Z,10.20
2023-11-09T00:19:10.281Z,9.80
2023-11-09T00:21:12.289Z,9.50
2023-11-09T00:23:14.385Z,9.30
2023-11-09T00:25:17.547Z,10.10
2023-11-09T00:27:23.151Z,9.80
2023-11-09T00:29:24.938Z,10.30
2023-11-09T00:31:26.889Z,10.40
2023-11-09T00:33:29.071Z,9.80
2023-11-09T00:35:31.543Z,9.20
2023-11-09T00:37:33.540Z,8.30
2023-11-09T00:39:36.179Z,9.90
2023-11-09T00:41:38.021Z,8.60
2023-11-09T00:43:41.221Z,8.90
2023-11-09T00:45:43.824Z,8.40
2023-11-09T00:47:47.432Z,8.50
2023-11-09T00:49:49.366Z,8.50
2023-11-09T00:51:51.650Z,8.40
2023-11-09T00:53:53.805Z,7.80
2023-11-09T00:55:55.637Z,8.50
2023-11-09T00:57:57.641Z,8.10
2023-11-09T01:00:00.296Z,8.30
2023-11-09T01:02:03.062Z,9.20
2023-11-09T01:04:07.024Z,8.10
2023-11-09T01:06:08.906Z,9.10
2023-11-09T01:08:11.793Z,8.80
2023-11-09T01:10:14.555Z,8.80
2023-11-09T01:12:20.847Z,8.90
2023-11-09T01:14:25.465Z,9.20
2023-11-09T01:16:27.352Z,10.30
2023-11-09T01:18:33.973Z,9.20
2023-11-09T01:20:36.858Z,10.80
2023-11-09T01:22:38.735Z,11.50
2023-11-09T01:24:41.179Z,10.90
2023-11-09T01:26:42.973Z,11.80
2023-11-09T01:30:21.907Z,12.90
2023-11-09T01:32:27.113Z,11.60
2023-11-09T01:34:29.071Z,10.70
2023-11-09T01:36:31.768Z,12.40
2023-11-09T01:38:35.928Z,11.10
2023-11-09T01:40:39.484Z,11.30
2023-11-09T01:42:44.544Z,10.60
2023-11-09T01:44:47.149Z,11.90
2023-11-09T01:46:54.539Z,10.90
2023-11-09T01:48:58.439Z,13.10
2023-11-09T01:51:00.913Z,11.00
2023-11-09T01:53:04.429Z,11.00
2023-11-09T01:55:09.167Z,12.30
2023-11-09T01:57:13.186Z,11.90
2023-11-09T01:59:17.815Z,12.10
2023-11-09T02:01:22.156Z,12.70
2023-11-09T02:03:24.581Z,13.40
2023-11-09T02:05:27.006Z,11.80
2023-11-09T02:07:29.554Z,12.70
2023-11-09T02:09:32.164Z,12.60
2023-11-09T02:11:34.563Z,12.10
2023-11-09T02:13:36.826Z,12.60
2023-11-09T02:15:38.741Z,11.70
2023-11-09T02:17:41.895Z,11.80
2023-11-09T02:19:44.822Z,12.60
2023-11-09T02:21:48.642Z,12.30
2023-11-09T02:23:51.796Z,12.10
2023-11-09T02:25:54.566Z,11.10
2023-11-09T02:27:56.388Z,11.60
2023-11-09T02:30:00.478Z,11.50
2023-11-09T02:32:02.403Z,12.80
2023-11-09T02:34:07.917Z,11.90
2023-11-09T02:36:10.066Z,11.80
2023-11-09T02:38:12.750Z,11.50
2023-11-09T02:42:16.613Z,13.60
2023-11-09T02:44:19.038Z,11.90
2023-11-09T02:46:21.457Z,13.60
2023-11-09T02:48:23.454Z,12.40
2023-11-09T02:50:26.133Z,14.20
2023-11-09T02:52:28.280Z,12.30
2023-11-09T02:54:30.119Z,11.50
2023-11-09T02:56:32.171Z,12.80
2023-11-09T02:58:37.976Z,12.40
2023-11-09T03:00:39.868Z,12.20
2023-11-09T03:02:42.798Z,12.90
2023-11-09T03:04:45.961Z,13.30
2023-11-09T03:06:50.066Z,13.30
2023-11-09T03:08:52.002Z,13.70
2023-11-09T03:10:53.857Z,12.20
2023-11-09T03:12:56.617Z,13.70
2023-11-09T03:14:58.736Z,14.00
2023-11-09T03:17:07.944Z,13.00
2023-11-09T03:19:09.758Z,13.60
2023-11-09T03:21:11.994Z,13.20
2023-11-09T03:23:13.918Z,12.00
2023-11-09T03:25:15.780Z,14.90
2023-11-09T03:27:17.641Z,13.80
2023-11-09T03:29:19.592Z,14.70
2023-11-09T03:31:21.486Z,14.80
2023-11-09T03:33:23.320Z,14.00
2023-11-09T03:35:25.461Z,12.90
2023-11-09T03:37:28.403Z,14.90
2023-11-09T03:39:34.725Z,14.30
2023-11-09T03:41:37.163Z,15.40
2023-11-09T03:43:38.948Z,13.60
2023-11-09T03:45:42.524Z,14.90
2023-11-09T03:47:44.636Z,15.90
2023-11-09T03:49:47.812Z,14.10
2023-11-09T03:51:50.788Z,14.00
2023-11-09T03:53:52.728Z,13.90
2023-11-09T03:55:54.686Z,14.90
2023-11-09T03:57:56.539Z,14.10
2023-11-09T04:00:00.953Z,14.20
2023-11-09T04:02:03.653Z,14.20
2023-11-09T04:04:07.457Z,14.60
2023-11-09T04:06:09.517Z,14.20
2023-11-09T04:08:11.501Z,14.40
2023-11-09T04:10:15.560Z,14.60
2023-11-09T04:12:17.544Z,14.20
2023-11-09T04:14:19.352Z,15.70
2023-11-09T04:16:21.896Z,14.40
2023-11-09T04:18:23.850Z,15.30
2023-11-09T04:20:26.372Z,14.50
2023-11-09T04:22:28.745Z,14.60
2023-11-09T04:24:31.144Z,15.10
2023-11-09T04:26:34.176Z,14.20
2023-11-09T04:28:39.652Z,14.20
2023-11-09T04:30:41.655Z,15.40
2023-11-09T04:32:46.238Z,14.50
2023-11-09T04:34:48.264Z,16.20
2023-11-09T04:36:51.531Z,14.70
2023-11-09T04:38:54.772Z,14.50
2023-11-09T04:41:04.988Z,14.80
2023-11-09T04:43:07.425Z,14.60
2023-11-09T04:45:13.957Z,16.20
2023-11-09T04:47:22.576Z,16.00
2023-11-09T04:49:25.224Z,15.20
2023-11-09T04:51:33.646Z,15.20
2023-11-09T04:53:43.149Z,15.00
2023-11-09T04:55:56.753Z,15.50
2023-11-09T04:58:17.565Z,16.00
2023-11-09T05:00:54.855Z,14.80
2023-11-09T05:03:15.435Z,13.70
2023-11-09T05:05:35.975Z,15.00
2023-11-09T05:07:38.020Z,15.30
2023-11-09T05:09:40.012Z,14.90
2023-11-09T05:11:42.930Z,16.20
2023-11-09T05:13:44.741Z,13.80
2023-11-09T05:15:46.755Z,13.10
2023-11-09T05:17:48.592Z,16.10
2023-11-09T05:19:52.322Z,14.90
2023-11-09T05:21:55.708Z,17.20
2023-11-09T05:23:57.724Z,16.60
2023-11-09T05:26:00.070Z,16.20
2023-11-09T05:28:01.910Z,15.70
2023-11-09T05:30:09.519Z,15.80
2023-11-09T05:32:13.372Z,15.30
2023-11-09T05:34:15.526Z,15.90
2023-11-09T05:36:18.086Z,17.00
2023-11-09T05:38:20.577Z,18.60
2023-11-09T05:40:22.735Z,15.50
2023-11-09T05:42:26.445Z,18.50
2023-11-09T05:44:29.141Z,17.30
2023-11-09T05:46:32.314Z,18.30
2023-11-09T05:48:35.103Z,16.70
2023-11-09T05:50:37.381Z,20.70
2023-11-09T05:52:39.231Z,17.60
2023-11-09T05:54:41.570Z,16.40
2023-11-09T05:56:44.218Z,17.70
2023-11-09T05:58:46.237Z,18.30
2023-11-09T06:00:49.156Z,16.80
2023-11-09T06:02:51.038Z,19.90
2023-11-09T06:04:54.467Z,17.00
2023-11-09T06:06:56.903Z,18.10
2023-11-09T06:09:00.577Z,18.60
2023-11-09T06:11:03.595Z,18.60
2023-11-09T06:13:05.535Z,19.70
2023-11-09T06:15:08.015Z,18.90
2023-11-09T06:17:12.294Z,17.40
2023-11-09T06:19:15.606Z,18.30
2023-11-09T06:21:18.588Z,19.00
2023-11-09T06:23:21.350Z,20.00
2023-11-09T06:25:23.191Z,17.80
2023-11-09T06:27:25.098Z,18.70
2023-11-09T06:29:29.181Z,20.00
2023-11-09T06:31:33.792Z,18.40
2023-11-09T06:33:35.957Z,19.70
2023-11-09T06:35:38.913Z,19.70
2023-11-09T06:37:47.048Z,18.60
2023-11-09T06:39:50.971Z,17.20
2023-11-09T06:41:53.215Z,17.40
2023-11-09T06:43:55.075Z,18.20
2023-11-09T06:45:58.280Z,18.60
2023-11-09T06:48:00.459Z,18.90
2023-11-09T06:50:03.712Z,18.60
2023-11-09T06:52:06.438Z,18.10
2023-11-09T06:54:09.078Z,17.30
2023-11-09T06:56:13.585Z,17.70
2023-11-09T06:58:15.500Z,17.00
2023-11-09T07:00:18.672Z,17.70
2023-11-09T07:02:21.922Z,18.40
2023-11-09T07:04:27.578Z,16.00
2023-11-09T07:06:29.783Z,19.50
2023-11-09T07:08:31.696Z,16.80
2023-11-09T07:10:34.647Z,17.20
2023-11-09T07:12:37.348Z,16.50
2023-11-09T07:14:39.142Z,15.40
2023-11-09T07:16:41.870Z,16.20
2023-11-09T07:18:45.305Z,16.80
2023-11-09T07:20:51.023Z,15.90
2023-11-09T07:23:02.603Z,15.10
2023-11-09T07:25:11.198Z,14.30
2023-11-09T07:27:16.467Z,14.30
2023-11-09T07:29:19.656Z,13.80
2023-11-09T07:31:21.696Z,14.50
2023-11-09T07:33:23.817Z,15.20
2023-11-09T07:35:26.345Z,13.70
2023-11-09T07:37:28.816Z,14.90
2023-11-09T07:39:31.331Z,14.90
2023-11-09T07:41:33.934Z,14.40
2023-11-09T07:43:36.477Z,15.10
2023-11-09T07:45:40.263Z,14.00
2023-11-09T07:47:42.232Z,15.60
2023-11-09T07:49:44.136Z,14.90
2023-11-09T07:51:47.046Z,14.90
2023-11-09T07:53:48.902Z,15.10
2023-11-09T07:55:51.172Z,14.50
2023-11-09T07:57:53.113Z,14.30
2023-11-09T07:59:55.010Z,13.40
2023-11-09T08:02:08.840Z,12.90
2023-11-09T08:04:11.030Z,13.30
2023-11-09T08:06:14.445Z,13.70
2023-11-09T08:08:17.898Z,13.80
2023-11-09T08:10:20.930Z,13.80
2023-11-09T08:12:24.756Z,13.90
2023-11-09T08:14:26.598Z,14.90
2023-11-09T08:16:28.581Z,14.50
2023-11-09T08:18:31.791Z,14.50
2023-11-09T08:20:33.723Z,12.60
2023-11-09T08:22:36.974Z,12.60
2023-11-09T08:24:38.843Z,13.00
2023-11-09T08:26:42.669Z,12.60
2023-11-09T08:28:44.756Z,12.30
2023-11-09T08:30:46.613Z,12.40
2023-11-09T08:32:49.480Z,11.60
2023-11-09T08:34:53.232Z,13.00
2023-11-09T08:36:55.363Z,13.10
2023-11-09T08:38:58.006Z,13.30
2023-11-09T08:41:00.009Z,12.20
2023-11-09T08:43:01.897Z,12.70
2023-11-09T08:45:05.272Z,12.60
2023-11-09T08:47:08.371Z,11.40
2023-11-09T08:49:12.151Z,10.60
2023-11-09T08:51:16.095Z,10.20
2023-11-09T08:53:18.971Z,11.00
2023-11-09T08:55:21.566Z,10.80
2023-11-09T08:57:23.770Z,9.80
2023-11-09T08:59:27.908Z,10.50
2023-11-09T09:01:29.862Z,10.30
2023-11-09T09:03:34.234Z,9.50
2023-11-09T09:05:38.544Z,9.00
2023-11-09T09:07:42.013Z,9.40
2023-11-09T09:09:47.011Z,8.40
2023-11-09T09:13:53.090Z,9.30
2023-11-09T09:15:55.324Z,10.20
2023-11-09T09:17:58.562Z,9.40
2023-11-09T09:20:00.809Z,10.10
2023-11-09T09:22:05.162Z,8.90
2023-11-09T09:24:07.456Z,9.90
2023-11-09T09:26:15.381Z,9.30
2023-11-09T09:28:20.493Z,9.60
2023-11-09T09:30:26.374Z,8.40
2023-11-09T09:32:28.260Z,9.10
2023-11-09T09:34:30.761Z,9.60
2023-11-09T09:36:35.153Z,9.40
2023-11-09T09:38:38.110Z,10.20
2023-11-09T09:40:47.781Z,8.50
2023-11-09T09:42:54.196Z,9.70
2023-11-09T09:44:57.529Z,10.40
2023-11-09T09:47:03.091Z,10.80
2023-11-09T09:49:06.628Z,8.80
2023-11-09T09:51:12.915Z,10.50
2023-11-09T09:53:21.722Z,11.40
2023-11-09T09:55:26.102Z,11.10
2023-11-09T09:57:28.896Z,12.90
2023-11-09T09:59:33.753Z,12.70
2023-11-09T10:01:38.164Z,13.20
2023-11-09T10:03:40.701Z,10.40
2023-11-09T10:05:42.661Z,9.20
2023-11-09T10:08:05.509Z,10.80
2023-11-09T10:10:08.484Z,9.70
2023-11-09T10:12:10.983Z,9.30
2023-11-09T10:14:13.655Z,11.30
2023-11-09T10:16:17.867Z,10.00
2023-11-09T10:18:20.270Z,9.50
2023-11-09T10:20:22.834Z,9.40
2023-11-09T10:22:26.234Z,9.70
2023-11-09T10:24:29.791Z,10.30
2023-11-09T10:26:42.196Z,9.20
2023-11-09T10:28:44.828Z,12.00
2023-11-09T10:30:47.751Z,13.40
2023-11-09T10:33:01.050Z,11.30
2023-11-09T10:35:04.583Z,10.80
2023-11-09T10:37:06.870Z,10.90
2023-11-09T10:39:22.397Z,8.90
2023-11-09T10:43:51.949Z,8.80
2023-11-09T10:45:56.383Z,10.30
2023-11-09T10:48:00.949Z,10.70
2023-11-09T10:50:14.825Z,10.60
2023-11-09T10:52:20.529Z,11.00
2023-11-09T10:54:27.148Z,8.40
2023-11-09T10:56:31.294Z,10.10
2023-11-09T10:58:34.801Z,10.20
2023-11-09T11:00:43.576Z,9.50
2023-11-09T11:02:55.093Z,8.90
2023-11-09T11:05:03.042Z,9.50
2023-11-09T11:07:08.120Z,8.10
2023-11-09T11:09:19.885Z,8.30
2023-11-09T11:11:27.434Z,7.80
2023-11-09T11:13:33.408Z,7.70
2023-11-09T11:15:45.511Z,7.80
2023-11-09T11:18:27.620Z,7.80
2023-11-09T11:20:35.852Z,7.40
2023-11-09T11:23:17.816Z,7.90
2023-11-09T11:25:27.590Z,6.50
2023-11-09T11:27:37.125Z,9.30
2023-11-09T11:29:39.470Z,7.70
2023-11-09T11:31:41.899Z,7.80
2023-11-09T11:33:47.623Z,6.70
2023-11-09T11:35:58.088Z,7.50
2023-11-09T11:38:19.243Z,7.30
2023-11-09T11:40:23.299Z,6.60
2023-11-09T11:42:28.288Z,7.50
2023-11-09T11:46:48.755Z,7.20
2023-11-09T11:48:52.292Z,8.00
2023-11-09T11:50:59.776Z,8.10
2023-11-09T11:53:02.841Z,8.70
2023-11-09T11:55:06.256Z,7.60
2023-11-09T11:57:08.927Z,7.40
2023-11-09T11:59:11.041Z,7.10
2023-11-09T12:01:32.329Z,7.50
2023-11-09T12:03:42.115Z,7.50
2023-11-09T12:05:45.315Z,7.30
2023-11-09T12:07:47.958Z,7.60
2023-11-09T12:09:50.389Z,6.10
2023-11-09T12:11:55.214Z,8.30
2023-11-09T12:13:57.717Z,7.80
2023-11-09T12:15:59.519Z,8.00
2023-11-09T12:18:01.643Z,7.00
2023-11-09T12:20:06.517Z,7.70
2023-11-09T12:22:09.095Z,7.90
2023-11-09T12:24:14.903Z,8.30
2023-11-09T12:26:23.063Z,8.20
2023-11-09T12:28:25.030Z,9.30
2023-11-09T12:30:27.069Z,9.20
2023-11-09T12:32:30.097Z,8.60
2023-11-09T12:34:33.977Z,8.00
2023-11-09T12:36:39.292Z,8.40
2023-11-09T12:38:41.686Z,8.10
2023-11-09T12:40:49.012Z,8.30
2023-11-09T12:42:52.460Z,8.40
2023-11-09T12:44:55.244Z,8.80
2023-11-09T12:46:59.112Z,6.80
2023-11-09T12:49:09.225Z,8.60
2023-11-09T12:51:23.721Z,10.50
2023-11-09T12:53:28.691Z,9.10
2023-11-09T12:55:33.956Z,10.30
2023-11-09T12:57:41.401Z,7.80
2023-11-09T12:59:43.697Z,8.00
2023-11-09T13:01:45.680Z,8.80
2023-11-09T13:03:48.069Z,8.30
2023-11-09T13:05:50.407Z,8.10
2023-11-09T13:07:56.962Z,8.60
2023-11-09T13:10:21.849Z,7.60
2023-11-09T13:12:30.364Z,8.00
2023-11-09T13:14:38.456Z,8.50
2023-11-09T13:16:42.317Z,7.80
2023-11-09T13:18:52.081Z,8.30
2023-11-09T13:20:55.811Z,8.00
2023-11-09T13:23:09.108Z,8.70
2023-11-09T13:25:11.369Z,7.40
2023-11-09T13:27:21.203Z,8.00
2023-11-09T13:29:24.626Z,8.00
2023-11-09T13:31:30.044Z,7.40
2023-11-09T13:33:37.579Z,8.80
2023-11-09T13:35:40.101Z,8.40
2023-11-09T13:37:43.157Z,8.60
2023-11-09T13:40:13.938Z,8.70
2023-11-09T13:42:23.638Z,8.00
2023-11-09T13:46:44.068Z,9.70
2023-11-09T13:48:47.082Z,9.60
2023-11-09T13:50:50.641Z,9.10
2023-11-09T13:52:53.804Z,9.40
2023-11-09T13:55:01.418Z,9.20
2023-11-09T13:57:20.303Z,8.50
2023-11-09T13:59:27.295Z,8.80
2023-11-09T14:01:29.952Z,9.60
2023-11-09T14:03:41.793Z,9.20
2023-11-09T14:05:44.980Z,9.80
2023-11-09T14:07:49.664Z,9.40
2023-11-09T14:09:52.120Z,10.50
2023-11-09T14:11:58.987Z,11.20
2023-11-09T14:14:07.300Z,11.90
2023-11-09T14:16:21.082Z,11.20
2023-11-09T14:18:48.731Z,11.50
2023-11-09T14:20:54.353Z,12.50
2023-11-09T14:22:57.026Z,11.00
2023-11-09T14:24:59.025Z,10.20
2023-11-09T14:27:02.605Z,11.50
2023-11-09T14:29:09.440Z,11.60
2023-11-09T14:31:11.880Z,12.70
2023-11-09T14:33:23.104Z,12.90
2023-11-09T14:35:25.575Z,11.70
2023-11-09T14:37:28.282Z,13.50
2023-11-09T14:39:38.222Z,12.80
2023-11-09T14:41:45.254Z,13.00
2023-11-09T14:43:47.195Z,17.10
2023-11-09T14:45:50.458Z,13.60
2023-11-09T14:47:53.065Z,15.10
2023-11-09T14:49:55.045Z,16.00
2023-11-09T14:52:00.455Z,15.50
2023-11-09T14:54:03.955Z,13.30
2023-11-09T14:56:07.783Z,15.00
2023-11-09T14:58:15.385Z,14.90
2023-11-09T15:00:22.596Z,16.20
2023-11-09T15:02:25.014Z,13.60
2023-11-09T15:04:33.886Z,13.20
2023-11-09T15:06:35.847Z,14.90
2023-11-09T15:08:38.964Z,14.80
2023-11-09T15:10:41.165Z,14.80
2023-11-09T15:12:44.431Z,13.30
2023-11-09T15:14:47.376Z,14.30
2023-11-09T15:16:50.799Z,13.20
2023-11-09T15:18:54.112Z,13.40
2023-11-09T15:20:55.974Z,13.30
2023-11-09T15:22:58.141Z,12.50
2023-11-09T15:25:00.000Z,12.30
2023-11-09T15:27:04.926Z,12.70
2023-11-09T15:29:10.241Z,12.20
2023-11-09T15:31:14.171Z,13.80
2023-11-09T15:33:17.142Z,13.20
2023-11-09T15:35:19.372Z,12.30
2023-11-09T15:37:23.921Z,11.80
2023-11-09T15:39:36.253Z,13.40
2023-11-09T15:41:48.286Z,13.20
2023-11-09T15:43:55.073Z,16.60
2023-11-09T15:45:59.803Z,16.80
2023-11-09T15:48:02.158Z,17.00
2023-11-09T15:50:09.505Z,17.20
2023-11-09T15:52:13.685Z,16.30
2023-11-09T15:54:15.744Z,22.00
2023-11-09T15:56:17.931Z,19.40
2023-11-09T15:58:19.796Z,16.50
2023-11-09T16:00:21.820Z,15.60
2023-11-09T16:02:23.688Z,15.50
2023-11-09T16:04:25.665Z,14.20
2023-11-09T16:06:28.633Z,13.80
2023-11-09T16:08:31.297Z,20.20
2023-11-09T16:10:35.955Z,22.50
2023-11-09T16:12:37.786Z,26.40
2023-11-09T16:14:41.531Z,25.30
2023-11-09T16:16:43.557Z,21.50
2023-11-09T16:18:48.044Z,18.80
2023-11-09T16:20:51.134Z,18.10
2023-11-09T16:22:56.115Z,15.10
2023-11-09T16:27:07.649Z,14.40
2023-11-09T16:29:13.478Z,16.90
2023-11-09T16:31:17.804Z,20.10
2023-11-09T16:33:19.730Z,23.60
2023-11-09T16:35:25.329Z,22.40
2023-11-09T16:37:28.078Z,19.90
2023-11-09T16:39:29.898Z,16.70
2023-11-09T16:41:32.438Z,15.20
2023-11-09T16:43:35.909Z,14.20
2023-11-09T16:45:37.798Z,14.80
2023-11-09T16:47:40.873Z,14.30
2023-11-09T16:49:43.029Z,14.40
2023-11-09T16:51:44.891Z,18.70
2023-11-09T16:53:46.657Z,20.60
2023-11-09T16:55:48.763Z,21.50
2023-11-09T16:57:50.557Z,17.90
2023-11-09T16:59:52.562Z,17.70
2023-11-09T17:01:55.043Z,18.60
2023-11-09T17:03:57.957Z,17.20
2023-11-09T17:05:59.881Z,17.40
2023-11-09T17:08:03.692Z,16.70
2023-11-09T17:10:08.776Z,14.30
2023-11-09T17:14:12.468Z,16.60
2023-11-09T17:16:14.307Z,17.40
2023-11-09T17:18:17.831Z,18.80
2023-11-09T17:20:20.249Z,19.30
2023-11-09T17:22:22.550Z,19.00
2023-11-09T17:24:24.445Z,16.80
2023-11-09T17:26:26.645Z,18.20
2023-11-09T17:28:32.373Z,16.20
2023-11-09T17:30:38.719Z,15.60
2023-11-09T17:32:41.460Z,17.20
2023-11-09T17:34:52.797Z,15.50
2023-11-09T17:36:54.885Z,14.70
2023-11-09T17:38:56.758Z,14.60
2023-11-09T17:40:59.314Z,13.60
2023-11-09T17:43:01.230Z,14.30
2023-11-09T17:45:03.127Z,14.20
2023-11-09T17:47:05.032Z,15.30
2023-11-09T17:49:07.366Z,14.70
2023-11-09T17:51:09.689Z,14.60
2023-11-09T17:53:12.876Z,14.90
2023-11-09T17:55:16.611Z,14.40
2023-11-09T17:57:19.196Z,13.80
2023-11-09T17:59:20.982Z,13.00
2023-11-09T18:01:23.643Z,14.80
2023-11-09T18:03:27.123Z,14.50
2023-11-09T18:05:30.682Z,14.50
2023-11-09T18:07:32.500Z,13.30
2023-11-09T18:09:34.925Z,13.00
2023-11-09T18:11:43.966Z,14.70
2023-11-09T18:13:46.705Z,15.50
2023-11-09T18:15:51.000Z,13.60
2023-11-09T18:17:53.181Z,15.00
2023-11-09T18:19:55.094Z,13.30
2023-11-09T18:22:04.649Z,12.70
2023-11-09T18:24:07.464Z,13.10
2023-11-09T18:26:12.136Z,14.60
2023-11-09T18:28:14.114Z,13.30
2023-11-09T18:30:16.416Z,14.00
2023-11-09T18:32:18.392Z,14.30
2023-11-09T18:34:21.211Z,14.00
2023-11-09T18:36:23.494Z,13.60
2023-11-09T18:38:27.074Z,14.00
2023-11-09T18:40:29.470Z,14.00
2023-11-09T18:42:32.360Z,14.50
2023-11-09T18:44:34.455Z,13.40
2023-11-09T18:46:37.275Z,16.00
2023-11-09T18:48:39.294Z,15.80
2023-11-09T18:52:45.926Z,15.70
2023-11-09T18:54:48.161Z,15.10
2023-11-09T18:56:50.414Z,17.60
2023-11-09T18:58:52.248Z,16.90
2023-11-09T19:00:54.145Z,16.70
2023-11-09T19:05:20.898Z,15.00
2023-11-09T19:07:22.943Z,16.40
2023-11-09T19:09:26.272Z,16.10
2023-11-09T19:11:28.906Z,17.10
2023-11-09T19:13:30.930Z,17.50
2023-11-09T19:15:33.004Z,16.50
2023-11-09T19:17:35.123Z,16.30
2023-11-09T19:19:39.671Z,16.80
2023-11-09T19:23:47.415Z,15.50
2023-11-09T19:25:49.275Z,15.50
2023-11-09T19:27:51.299Z,17.40
2023-11-09T19:29:53.195Z,15.60
2023-11-09T19:31:55.211Z,15.00
2023-11-09T19:33:57.652Z,15.90
2023-11-09T19:35:59.469Z,15.50
2023-11-09T19:38:01.297Z,15.70
2023-11-09T19:40:03.893Z,16.30
2023-11-09T19:42:07.248Z,17.10
2023-11-09T19:44:09.187Z,17.10
2023-11-09T19:46:11.398Z,16.90
2023-11-09T19:48:14.076Z,18.30
2023-11-09T19:50:16.296Z,16.80
2023-11-09T19:52:18.070Z,16.90
2023-11-09T19:54:20.585Z,18.50
2023-11-09T19:56:22.712Z,19.80
2023-11-09T19:58:24.677Z,19.40
2023-11-09T20:00:26.616Z,18.10
2023-11-09T20:02:28.440Z,19.00
2023-11-09T20:04:30.414Z,20.20
2023-11-09T20:06:33.546Z,17.90
2023-11-09T20:08:35.964Z,18.50
2023-11-09T20:10:37.768Z,17.70
2023-11-09T20:12:40.363Z,20.30
2023-11-09T20:14:43.039Z,19.60
2023-11-09T20:16:44.901Z,21.10
2023-11-09T20:18:46.741Z,22.10
2023-11-09T20:20:48.664Z,20.30
2023-11-09T20:22:53.632Z,20.50
2023-11-09T20:25:20.491Z,21.20
2023-11-09T20:27:23.485Z,21.40
2023-11-09T20:29:29.435Z,21.20
2023-11-09T20:31:31.454Z,22.30
2023-11-09T20:33:34.291Z,22.10
2023-11-09T20:35:36.862Z,22.20
2023-11-09T20:37:41.121Z,23.70
2023-11-09T20:39:43.554Z,23.00
2023-11-09T20:41:45.374Z,22.70
2023-11-09T20:43:48.560Z,22.30
2023-11-09T20:45:52.033Z,24.00
2023-11-09T20:47:57.515Z,22.40
2023-11-09T20:49:59.896Z,23.40
2023-11-09T20:52:01.713Z,23.10
2023-11-09T20:54:04.342Z,24.90
2023-11-09T20:56:06.253Z,23.40
2023-11-09T20:58:09.459Z,24.20
2023-11-09T21:00:15.122Z,24.10
2023-11-09T21:02:17.359Z,25.30
2023-11-09T21:04:19.363Z,25.00
2023-11-09T21:06:21.298Z,24.80
2023-11-09T21:08:23.154Z,23.70
2023-11-09T21:10:24.993Z,23.20
2023-11-09T21:12:29.196Z,24.20
2023-11-09T21:14:32.047Z,24.00
2023-11-09T21:16:34.176Z,24.60
2023-11-09T21:18:36.698Z,23.20
2023-11-09T21:20:38.568Z,23.10
2023-11-09T21:22:40.511Z,24.00
2023-11-09T21:24:43.132Z,23.90
2023-11-09T21:26:45.717Z,23.10
2023-11-09T21:28:47.638Z,23.30
2023-11-09T21:30:51.036Z,22.40
2023-11-09T21:32:52.956Z,24.50
2023-11-09T21:34:54.848Z,23.30
2023-11-09T21:36:56.915Z,22.90
2023-11-09T21:39:00.625Z,23.30
2023-11-09T21:41:04.152Z,22.90
2023-11-09T21:43:06.033Z,23.10
2023-11-09T21:45:09.304Z,21.50
2023-11-09T21:47:13.247Z,22.90
2023-11-09T21:49:15.649Z,22.20
2023-11-09T21:51:17.411Z,22.20
2023-11-09T21:53:19.362Z,23.50
2023-11-09T21:55:23.628Z,22.50
2023-11-09T21:57:26.190Z,22.90
2023-11-09T21:59:28.602Z,22.10
2023-11-09T22:01:30.406Z,21.90
2023-11-09T22:03:34.276Z,23.50
2023-11-09T22:05:37.441Z,21.90
2023-11-09T22:07:39.476Z,24.10
2023-11-09T22:09:41.429Z,21.70
2023-11-09T22:11:43.631Z,22.50
2023-11-09T22:13:45.794Z,22.50
2023-11-09T22:15:47.565Z,23.30
2023-11-09T22:17:50.691Z,22.80
2023-11-09T22:19:52.510Z,22.40
2023-11-09T22:21:54.322Z,22.80
2023-11-09T22:23:56.096Z,23.20
2023-11-09T22:25:59.053Z,23.50
2023-11-09T22:28:00.856Z,23.00
2023-11-09T22:30:02.857Z,23.30
2023-11-09T22:32:05.224Z,22.90
2023-11-09T22:34:07.811Z,23.50
2023-11-09T22:36:09.986Z,24.00
2023-11-09T22:38:11.872Z,23.00
2023-11-09T22:40:13.861Z,23.10
2023-11-09T22:42:15.875Z,23.00
2023-11-09T22:44:18.256Z,23.60
2023-11-09T22:46:20.230Z,21.80
2023-11-09T22:48:23.086Z,23.60
2023-11-09T22:50:25.339Z,22.20
2023-11-09T22:52:27.163Z,23.00
2023-11-09T22:54:29.104Z,22.70
2023-11-09T22:56:31.017Z,24.60
2023-11-09T22:58:32.896Z,21.70
2023-11-09T23:00:38.620Z,22.30
2023-11-09T23:02:41.053Z,21.40
2023-11-09T23:04:42.943Z,22.00
2023-11-09T23:06:44.912Z,22.30
2023-11-09T23:08:48.698Z,22.60
2023-11-09T23:10:53.458Z,23.00
2023-11-09T23:12:57.030Z,23.00
2023-11-09T23:14:58.935Z,22.10
2023-11-09T23:17:01.991Z,22.90
2023-11-09T23:19:04.204Z,21.70
2023-11-09T23:21:07.745Z,21.90
2023-11-09T23:23:09.616Z,23.40
2023-11-09T23:25:12.742Z,22.70
2023-11-09T23:27:14.601Z,23.90
2023-11-09T23:29:18.604Z,22.30
2023-11-09T23:31:20.558Z,24.00
2023-11-09T23:33:22.697Z,25.00
2023-11-09T23:35:24.625Z,25.10
2023-11-09T23:37:26.416Z,24.60
2023-11-09T23:39:28.190Z,24.30
2023-11-09T23:41:30.083Z,26.20
2023-11-09T23:43:31.925Z,23.60
2023-11-09T23:45:34.261Z,26.80
2023-11-09T23:47:38.437Z,26.70
2023-11-09T23:49:41.861Z,25.10
2023-11-09T23:51:44.446Z,26.80
2023-11-09T23:53:46.569Z,26.40
2023-11-09T23:55:48.380Z,27.10
2023-11-09T23:57:50.436Z,25.60
2023-11-09T23:59:53.128Z,25.20
